Time;durP1;ratioP1;P1;durP2;ratioP2;P2;SDS_P1;SDS_P2;PMS_P1;PMS_P2;Temp;Humidity;BMP_temperature;BMP_pressure;BME280_temperature;BME280_humidity;BME280_pressure;Samples;Min_cycle;Max_cycle;Signal;HPM_P1;HPM_P2
2023/09/22 00:00:36;;;;;;;1.33;0.80;;;;;;;15.91;100.00;98961.91;4962677;28;20213;-77
2023/09/22 00:03:03;;;;;;;1.43;0.80;;;;;;;15.89;100.00;98956.75;4959868;28;20238;-78
2023/09/22 00:05:28;;;;;;;1.43;0.83;;;;;;;15.87;100.00;98966.44;4963558;28;20197;-77
2023/09/22 00:07:53;;;;;;;1.33;0.83;;;;;;;15.83;100.00;98951.84;4970956;28;20202;-77
2023/09/22 00:10:19;;;;;;;0.90;0.60;;;;;;;15.82;100.00;98957.97;4963974;28;20197;-78
2023/09/22 00:12:45;;;;;;;1.30;0.80;;;;;;;15.80;100.00;98960.66;4960866;28;20186;-76
2023/09/22 00:15:10;;;;;;;1.90;0.60;;;;;;;15.78;100.00;98951.22;4966174;28;20186;-77
2023/09/22 00:17:35;;;;;;;1.07;0.70;;;;;;;15.75;100.00;98954.84;4965183;28;20210;-78
2023/09/22 00:20:01;;;;;;;0.90;0.80;;;;;;;15.74;100.00;98960.97;4966051;28;20214;-77
2023/09/22 00:22:27;;;;;;;1.40;0.63;;;;;;;15.75;100.00;98953.97;4965949;28;20194;-78
2023/09/22 00:24:52;;;;;;;0.60;0.60;;;;;;;15.75;100.00;98959.19;4963171;28;20842;-78
2023/09/22 00:27:18;;;;;;;1.43;0.80;;;;;;;15.73;100.00;98961.06;4963340;28;20219;-77
2023/09/22 00:29:43;;;;;;;0.60;0.60;;;;;;;15.70;100.00;98967.25;4963591;28;20494;-77
2023/09/22 00:32:10;;;;;;;1.23;0.60;;;;;;;15.67;100.00;98960.44;4965122;28;20186;-77
2023/09/22 00:34:35;;;;;;;1.13;0.80;;;;;;;15.68;100.00;98958.66;4960728;28;20186;-77
2023/09/22 00:37:01;;;;;;;3.03;0.90;;;;;;;15.67;100.00;98959.59;4965130;28;20678;-78
2023/09/22 00:39:26;;;;;;;1.00;0.73;;;;;;;15.66;100.00;98963.97;4966826;28;20193;-76
2023/09/22 00:41:55;;;;;;;0.70;0.60;;;;;;;15.64;100.00;98960.59;4956171;28;20191;-76
2023/09/22 00:44:20;;;;;;;1.23;0.70;;;;;;;15.62;100.00;98965.03;4964545;28;20767;-78
2023/09/22 00:46:45;;;;;;;0.70;0.70;;;;;;;15.59;100.00;98964.38;4965321;28;20206;-77
2023/09/22 00:49:12;;;;;;;1.10;0.80;;;;;;;15.57;100.00;98958.38;4961617;28;20190;-78
2023/09/22 00:51:37;;;;;;;2.63;0.70;;;;;;;15.53;100.00;98970.75;4967127;28;20193;-78
2023/09/22 00:54:03;;;;;;;0.80;0.70;;;;;;;15.53;100.00;98981.16;4988740;28;20178;-78
2023/09/22 00:56:29;;;;;;;0.90;0.70;;;;;;;15.51;100.00;98983.84;4970197;28;20699;-77
2023/09/22 00:58:54;;;;;;;1.23;0.77;;;;;;;15.49;100.00;98993.53;4966443;28;20661;-78
2023/09/22 01:01:20;;;;;;;0.57;0.57;;;;;;;15.47;100.00;98997.09;4962674;28;20185;-76
2023/09/22 01:03:45;;;;;;;0.90;0.80;;;;;;;15.46;100.00;98985.00;4963285;28;21199;-77
2023/09/22 01:06:11;;;;;;;1.67;1.00;;;;;;;15.45;100.00;98978.09;4968835;28;20205;-78
2023/09/22 01:08:37;;;;;;;0.70;0.70;;;;;;;15.45;100.00;98968.53;4964330;28;20291;-78
2023/09/22 01:11:02;;;;;;;0.73;0.67;;;;;;;15.44;100.00;98961.63;4965056;28;20278;-77
2023/09/22 01:13:28;;;;;;;0.70;0.63;;;;;;;15.44;100.00;98958.16;4962216;28;20202;-78
2023/09/22 01:15:54;;;;;;;2.07;1.00;;;;;;;15.42;100.00;98966.06;4968940;28;20217;-78
2023/09/22 01:18:19;;;;;;;1.27;0.70;;;;;;;15.41;100.00;98984.41;4968042;28;20240;-77
2023/09/22 01:20:45;;;;;;;0.97;0.70;;;;;;;15.39;100.00;98987.06;4963668;28;20182;-78
2023/09/22 01:23:12;;;;;;;1.40;0.80;;;;;;;15.35;100.00;98994.19;4965868;28;20406;-77
2023/09/22 01:25:39;;;;;;;1.00;0.90;;;;;;;15.32;100.00;99010.00;4956721;28;20197;-79
2023/09/22 01:28:05;;;;;;;1.43;0.90;;;;;;;15.28;100.00;99002.41;4958476;28;20245;-78
2023/09/22 01:30:32;;;;;;;1.30;0.70;;;;;;;15.22;100.00;98999.16;4965279;28;20343;-78
2023/09/22 01:32:58;;;;;;;0.83;0.60;;;;;;;15.20;100.00;98995.78;4964248;28;20193;-77
2023/09/22 01:35:23;;;;;;;1.50;0.70;;;;;;;15.20;100.00;98993.19;4963244;28;20197;-77
2023/09/22 01:37:58;;;;;;;1.47;0.90;;;;;;;15.17;100.00;98976.84;4967141;28;20920;-77
2023/09/22 01:40:23;;;;;;;1.83;0.60;;;;;;;15.18;100.00;98960.31;4956413;28;20232;-78
2023/09/22 01:42:48;;;;;;;0.80;0.60;;;;;;;15.15;100.00;98955.25;4964202;28;20198;-77
2023/09/22 01:45:14;;;;;;;0.80;0.70;;;;;;;15.18;100.00;98935.09;4962232;28;20666;-77
2023/09/22 01:47:42;;;;;;;1.90;0.80;;;;;;;15.19;100.00;98928.13;4963416;28;20202;-77
2023/09/22 01:50:08;;;;;;;0.80;0.60;;;;;;;15.20;100.00;98930.63;4964015;28;20482;-78
2023/09/22 01:52:33;;;;;;;1.13;0.80;;;;;;;15.21;100.00;98931.50;4963835;28;20185;-77
2023/09/22 01:54:59;;;;;;;0.80;0.70;;;;;;;15.23;100.00;98934.88;4966965;28;20188;-78
2023/09/22 01:57:24;;;;;;;0.93;0.80;;;;;;;15.24;100.00;98929.56;4962852;28;20301;-77
2023/09/22 01:59:49;;;;;;;1.47;0.70;;;;;;;15.26;100.00;98926.03;4965720;28;20182;-77
2023/09/22 02:02:15;;;;;;;0.70;0.60;;;;;;;15.28;100.00;98919.81;4964352;28;20551;-77
2023/09/22 02:04:40;;;;;;;1.93;0.80;;;;;;;15.25;100.00;98904.38;4966032;28;20345;-77
2023/09/22 02:07:06;;;;;;;1.33;0.90;;;;;;;15.23;100.00;98924.44;4959585;28;20301;-78
2023/09/22 02:09:31;;;;;;;2.10;0.70;;;;;;;15.22;100.00;98947.03;4964364;28;20186;-78
2023/09/22 02:11:57;;;;;;;2.07;0.90;;;;;;;15.22;100.00;98941.00;4966622;28;20674;-77
2023/09/22 02:14:22;;;;;;;1.00;0.60;;;;;;;15.20;100.00;98942.84;4953055;28;20272;-77
2023/09/22 02:16:48;;;;;;;1.40;0.67;;;;;;;15.20;100.00;98940.22;4950977;28;20207;-77
2023/09/22 02:19:13;;;;;;;0.90;0.60;;;;;;;15.21;100.00;98949.75;4961210;28;20186;-78
2023/09/22 02:21:39;;;;;;;1.70;1.10;;;;;;;15.20;100.00;98948.88;4949909;28;20925;-78
2023/09/22 02:24:05;;;;;;;1.83;0.70;;;;;;;15.19;100.00;98955.03;4954986;28;20203;-77
2023/09/22 02:26:31;;;;;;;1.40;0.73;;;;;;;15.18;100.00;98958.56;4953577;28;20210;-78
2023/09/22 02:28:56;;;;;;;0.80;0.70;;;;;;;15.18;100.00;98978.56;4952828;28;20185;-76
2023/09/22 02:31:22;;;;;;;1.23;0.80;;;;;;;15.16;100.00;98981.25;4951966;28;20178;-76
2023/09/22 02:33:48;;;;;;;0.80;0.70;;;;;;;15.15;100.00;98984.75;4953600;28;20186;-77
2023/09/22 02:36:14;;;;;;;1.10;0.80;;;;;;;15.14;100.00;98977.00;4964588;28;20281;-78
2023/09/22 02:38:39;;;;;;;2.73;0.97;;;;;;;15.11;100.00;98980.63;4952595;28;20182;-78
2023/09/22 02:41:05;;;;;;;0.73;0.73;;;;;;;15.09;100.00;98977.22;4964146;28;20205;-79
2023/09/22 02:43:30;;;;;;;2.40;1.00;;;;;;;15.06;100.00;98983.44;4969310;28;20213;-77
2023/09/22 02:45:55;;;;;;;1.10;0.70;;;;;;;15.04;100.00;98968.81;4964566;28;20606;-77
2023/09/22 02:48:21;;;;;;;0.80;0.73;;;;;;;15.02;100.00;98958.44;4971464;28;20194;-77
2023/09/22 02:50:46;;;;;;;0.67;0.67;;;;;;;15.02;100.00;98963.66;4983748;28;20209;-78
2023/09/22 02:53:11;;;;;;;1.13;0.90;;;;;;;14.99;100.00;98961.19;4990879;28;20182;-78
2023/09/22 02:55:37;;;;;;;1.00;0.80;;;;;;;15.02;100.00;98960.22;4965046;28;20205;-76
2023/09/22 02:58:03;;;;;;;1.00;0.80;;;;;;;15.04;100.00;98955.78;4971402;28;20192;-78
2023/09/22 03:00:28;;;;;;;0.93;0.70;;;;;;;15.05;100.00;98953.09;4962191;28;20198;-76
2023/09/22 03:02:54;;;;;;;0.70;0.70;;;;;;;15.06;100.00;98946.09;4962894;28;20763;-77
2023/09/22 03:05:19;;;;;;;1.00;0.87;;;;;;;15.08;100.00;98937.31;4968591;28;20682;-77
2023/09/22 03:07:46;;;;;;;1.10;1.00;;;;;;;15.08;100.00;98934.72;4955953;28;20224;-76
2023/09/22 03:10:11;;;;;;;2.20;0.80;;;;;;;15.07;100.00;98943.44;4967826;28;20276;-76
2023/09/22 03:12:40;;;;;;;1.67;0.80;;;;;;;15.08;100.00;98952.94;4967927;28;20193;-78
2023/09/22 03:15:09;;;;;;;1.30;1.00;;;;;;;15.09;100.00;98961.59;4969097;28;20220;-77
2023/09/22 03:17:37;;;;;;;3.43;1.00;;;;;;;15.11;100.00;98985.00;4968606;28;20205;-77
2023/09/22 03:20:06;;;;;;;0.77;0.77;;;;;;;15.12;100.00;98989.28;4967956;28;20681;-76
2023/09/22 03:22:36;;;;;;;1.63;0.90;;;;;;;15.12;100.00;98994.50;4968037;28;20198;-77
2023/09/22 03:25:01;;;;;;;1.17;1.07;;;;;;;15.10;100.00;98989.34;4967605;28;20713;-77
2023/09/22 03:27:31;;;;;;;1.57;0.90;;;;;;;15.10;100.00;99012.78;4961103;28;20221;-78
2023/09/22 03:29:56;;;;;;;0.93;0.77;;;;;;;15.09;100.00;99021.53;4961346;28;20197;-77
2023/09/22 03:32:22;;;;;;;0.80;0.73;;;;;;;15.13;100.00;99032.63;4960868;28;20198;-77
2023/09/22 03:34:48;;;;;;;1.37;0.90;;;;;;;15.15;100.00;99015.16;4963555;28;20190;-77
2023/09/22 03:37:13;;;;;;;0.70;0.70;;;;;;;15.19;100.00;99001.94;4959846;28;20593;-77
2023/09/22 03:39:39;;;;;;;1.07;0.83;;;;;;;15.22;100.00;98993.13;4958701;28;20187;-76
2023/09/22 03:42:06;;;;;;;0.87;0.60;;;;;;;15.23;100.00;98973.97;4969264;28;20571;-76
2023/09/22 03:44:32;;;;;;;1.10;0.70;;;;;;;15.22;100.00;98965.28;4963129;28;20272;-77
2023/09/22 03:46:57;;;;;;;2.53;1.03;;;;;;;15.17;100.00;98953.41;4962608;28;20209;-77
2023/09/22 03:49:22;;;;;;;2.50;0.80;;;;;;;15.08;100.00;98954.69;4967873;28;20190;-77
2023/09/22 03:51:48;;;;;;;1.00;0.90;;;;;;;15.08;100.00;98949.50;4965745;28;20185;-78
2023/09/22 03:54:13;;;;;;;1.73;0.90;;;;;;;15.09;100.00;98951.19;4965124;28;20245;-77
2023/09/22 03:56:38;;;;;;;1.23;0.87;;;;;;;15.08;100.00;98946.88;4963855;28;20214;-78
2023/09/22 03:59:05;;;;;;;2.77;1.10;;;;;;;15.09;100.00;98951.19;4962277;28;20193;-78
2023/09/22 04:01:31;;;;;;;1.53;0.97;;;;;;;15.09;100.00;98943.34;4967238;28;20256;-77
2023/09/22 04:03:57;;;;;;;1.70;0.90;;;;;;;15.08;100.00;98946.88;4960064;28;20302;-76
2023/09/22 04:06:22;;;;;;;2.37;1.20;;;;;;;15.06;100.00;98946.09;4966488;28;20337;-78
2023/09/22 04:08:48;;;;;;;1.67;0.83;;;;;;;15.06;100.00;98946.09;4964278;28;20204;-77
2023/09/22 04:11:14;;;;;;;2.23;1.20;;;;;;;15.04;100.00;98911.50;4959517;28;20265;-78
2023/09/22 04:13:40;;;;;;;1.97;1.10;;;;;;;15.00;100.00;98925.59;4961507;28;20540;-77
2023/09/22 04:16:05;;;;;;;1.00;0.90;;;;;;;14.97;100.00;98934.41;4960811;28;20214;-76
2023/09/22 04:18:31;;;;;;;1.40;1.00;;;;;;;14.97;100.00;98946.56;4969753;28;20198;-76
2023/09/22 04:20:57;;;;;;;2.83;1.10;;;;;;;14.99;100.00;98962.97;4961038;28;20198;-78
2023/09/22 04:23:25;;;;;;;1.17;0.97;;;;;;;14.98;100.00;98964.72;4965052;28;20220;-79
2023/09/22 04:25:54;;;;;;;1.13;0.90;;;;;;;14.97;100.00;98949.19;4962465;28;20225;-77
2023/09/22 04:28:23;;;;;;;1.27;1.03;;;;;;;14.97;100.00;98957.00;4968429;28;20265;-77
2023/09/22 04:30:49;;;;;;;2.30;1.10;;;;;;;14.93;100.00;98959.75;4958327;28;20697;-77
2023/09/22 04:33:15;;;;;;;2.70;1.13;;;;;;;14.90;100.00;98961.66;4959810;28;20190;-77
2023/09/22 04:35:40;;;;;;;1.43;0.77;;;;;;;14.88;100.00;98972.16;4962972;28;20206;-78
2023/09/22 04:38:06;;;;;;;1.70;0.67;;;;;;;14.87;100.00;98982.63;4962268;28;20198;-78
2023/09/22 04:40:36;;;;;;;1.07;0.90;;;;;;;14.88;100.00;98994.75;4955696;28;20380;-77
2023/09/22 04:43:03;;;;;;;1.67;0.87;;;;;;;14.90;100.00;99001.56;4965977;28;20235;-78
2023/09/22 04:45:29;;;;;;;0.80;0.70;;;;;;;14.90;100.00;98991.13;4962712;28;20692;-78
2023/09/22 04:47:55;;;;;;;0.87;0.80;;;;;;;14.94;100.00;99004.88;4984287;28;20238;-79
2023/09/22 04:50:21;;;;;;;0.90;0.70;;;;;;;14.93;100.00;99004.03;4980270;28;20241;-77
2023/09/22 04:52:47;;;;;;;1.00;0.77;;;;;;;14.97;100.00;99003.88;4971557;28;20190;-77
2023/09/22 04:55:13;;;;;;;1.07;0.80;;;;;;;14.99;100.00;98991.63;4960612;28;20189;-77
2023/09/22 04:57:38;;;;;;;1.10;0.97;;;;;;;15.00;100.00;99001.97;4959704;28;20206;-77
2023/09/22 05:00:12;;;;;;;0.63;0.60;;;;;;;15.04;100.00;99010.50;4957361;28;20190;-78
2023/09/22 05:02:38;;;;;;;1.10;0.83;;;;;;;15.08;100.00;99004.19;4958689;28;20734;-77
2023/09/22 05:05:04;;;;;;;0.90;0.70;;;;;;;15.11;100.00;99008.44;4963159;28;20232;-77
2023/09/22 05:07:30;;;;;;;1.57;0.63;;;;;;;15.12;100.00;99000.53;4953315;28;20709;-78
2023/09/22 05:09:55;;;;;;;1.00;0.70;;;;;;;15.13;100.00;98994.41;4958468;28;20566;-78
2023/09/22 05:12:21;;;;;;;0.80;0.60;;;;;;;15.13;100.00;99004.84;4958142;28;20252;-78
2023/09/22 05:14:47;;;;;;;1.20;0.87;;;;;;;15.14;100.00;99011.75;4953829;28;20222;-77
2023/09/22 05:17:13;;;;;;;1.47;0.80;;;;;;;15.16;100.00;99024.69;4955194;28;20207;-78
2023/09/22 05:19:39;;;;;;;1.17;0.77;;;;;;;15.17;100.00;99018.56;4955718;28;20253;-77
2023/09/22 05:22:04;;;;;;;1.23;1.03;;;;;;;15.18;100.00;99036.75;4961533;28;20587;-77
2023/09/22 05:24:31;;;;;;;1.60;0.83;;;;;;;15.19;100.00;99041.03;4960741;28;20216;-76
2023/09/22 05:26:56;;;;;;;0.77;0.70;;;;;;;15.20;100.00;99050.50;4960378;28;20225;-78
2023/09/22 05:29:21;;;;;;;1.23;0.77;;;;;;;15.22;100.00;99060.88;4963516;28;20736;-77
2023/09/22 05:31:47;;;;;;;0.67;0.67;;;;;;;15.23;100.00;99079.03;4960321;28;20642;-77
2023/09/22 05:34:13;;;;;;;2.33;0.90;;;;;;;15.25;100.00;99076.38;4961063;28;20182;-77
2023/09/22 05:36:39;;;;;;;1.10;1.00;;;;;;;15.28;100.00;99083.19;4960593;28;20210;-78
2023/09/22 05:39:05;;;;;;;2.33;1.10;;;;;;;15.30;100.00;99087.41;4964874;28;20280;-77
2023/09/22 05:41:31;;;;;;;1.20;1.10;;;;;;;15.34;100.00;99093.34;4970149;28;20189;-76
2023/09/22 05:43:56;;;;;;;1.40;1.07;;;;;;;15.38;100.00;99105.28;4957108;28;20348;-76
2023/09/22 05:46:23;;;;;;;2.90;1.27;;;;;;;15.40;100.00;99111.28;4958962;28;20268;-76
2023/09/22 05:48:49;;;;;;;1.63;1.20;;;;;;;15.42;100.00;99113.84;4960662;28;20275;-77
2023/09/22 05:51:14;;;;;;;2.20;1.30;;;;;;;15.41;100.00;99112.97;4960652;28;21280;-77
2023/09/22 05:53:40;;;;;;;1.90;1.17;;;;;;;15.41;100.00;99107.75;4962077;28;20211;-76
2023/09/22 05:56:10;;;;;;;4.30;1.30;;;;;;;15.41;100.00;99104.31;4957960;28;20225;-78
2023/09/22 05:58:36;;;;;;;1.10;1.00;;;;;;;15.41;100.00;99110.38;4958783;28;21047;-76
2023/09/22 06:01:13;;;;;;;1.07;0.97;;;;;;;15.45;100.00;99113.66;4955168;28;20735;-80
2023/09/22 06:03:41;;;;;;;1.93;1.00;;;;;;;15.47;100.00;99120.50;4964525;28;20581;-77
2023/09/22 06:06:14;;;;;;;1.77;1.23;;;;;;;15.48;100.00;99122.19;4966841;28;20236;-77
2023/09/22 06:08:41;;;;;;;1.67;1.17;;;;;;;15.51;100.00;99124.63;4971725;28;20190;-76
2023/09/22 06:11:08;;;;;;;1.20;0.90;;;;;;;15.54;100.00;99115.84;4972236;28;20690;-78
2023/09/22 06:13:33;;;;;;;1.97;1.10;;;;;;;15.57;100.00;99120.91;4952762;28;20694;-77
2023/09/22 06:16:00;;;;;;;3.00;1.07;;;;;;;15.57;100.00;99109.63;4956941;28;20309;-78
2023/09/22 06:18:26;;;;;;;2.53;1.07;;;;;;;15.57;100.00;99115.69;4962983;28;20186;-77
2023/09/22 06:20:56;;;;;;;2.00;1.00;;;;;;;15.57;100.00;99114.84;4966332;28;20193;-78
2023/09/22 06:23:23;;;;;;;2.50;1.00;;;;;;;15.55;100.00;99110.53;4965276;28;20214;-77
2023/09/22 06:25:48;;;;;;;1.23;1.13;;;;;;;15.56;100.00;99108.78;4964996;28;20197;-78
2023/09/22 06:28:15;;;;;;;1.37;1.00;;;;;;;15.55;100.00;99094.91;4961200;28;20186;-76
2023/09/22 06:30:41;;;;;;;1.23;1.00;;;;;;;15.56;100.00;99108.78;4972750;28;20196;-77
2023/09/22 06:33:06;;;;;;;1.57;1.00;;;;;;;15.54;100.00;99108.84;4967369;28;20984;-78
2023/09/22 06:35:32;;;;;;;1.33;1.10;;;;;;;15.55;100.00;99120.97;4968303;28;20189;-76
2023/09/22 06:37:58;;;;;;;2.03;1.00;;;;;;;15.59;100.00;99121.66;4963683;28;20270;-77
2023/09/22 06:40:23;;;;;;;1.30;1.00;;;;;;;15.61;100.00;99124.22;4963562;28;20194;-77
2023/09/22 06:42:49;;;;;;;1.40;1.20;;;;;;;15.61;100.00;99122.44;4968368;28;20504;-78
2023/09/22 06:45:18;;;;;;;1.47;1.00;;;;;;;15.62;100.00;99128.50;4990801;28;20218;-78
2023/09/22 06:47:44;;;;;;;0.93;0.77;;;;;;;15.63;100.00;99131.03;4981354;28;20205;-77
2023/09/22 06:50:11;;;;;;;1.40;1.00;;;;;;;15.63;100.00;99128.41;4968727;28;20571;-77
2023/09/22 06:52:37;;;;;;;1.43;1.00;;;;;;;15.66;100.00;99133.50;4965409;28;20329;-77
2023/09/22 06:55:08;;;;;;;0.90;0.80;;;;;;;15.67;100.00;99136.94;4962351;28;20658;-76
2023/09/22 06:57:36;;;;;;;1.10;0.80;;;;;;;15.67;100.00;99145.63;4968805;28;20682;-76
2023/09/22 07:00:05;;;;;;;0.77;0.70;;;;;;;15.68;100.00;99143.84;4975373;28;20316;-77
2023/09/22 07:02:31;;;;;;;1.10;0.90;;;;;;;15.69;100.00;99146.41;4966455;28;20205;-79
2023/09/22 07:04:56;;;;;;;1.43;0.90;;;;;;;15.69;100.00;99145.53;4961939;28;20228;-76
2023/09/22 07:07:21;;;;;;;0.70;0.70;;;;;;;15.70;100.00;99148.09;4966749;28;20288;-78
2023/09/22 07:09:47;;;;;;;0.93;0.83;;;;;;;15.74;100.00;99151.38;4955872;28;20747;-78
2023/09/22 07:12:13;;;;;;;1.70;1.10;;;;;;;15.75;100.00;99154.81;4963783;28;22102;-76
2023/09/22 07:14:38;;;;;;;1.30;1.00;;;;;;;15.78;100.00;99147.72;4964656;28;20220;-77
2023/09/22 07:17:03;;;;;;;1.37;1.17;;;;;;;15.82;100.00;99137.97;4965503;28;20226;-79
2023/09/22 07:19:31;;;;;;;1.50;1.30;;;;;;;15.85;100.00;99128.25;4966679;28;20725;-76
2023/09/22 07:21:57;;;;;;;2.20;1.27;;;;;;;15.90;100.00;99121.97;4963600;28;20179;-77
2023/09/22 07:24:22;;;;;;;1.50;1.10;;;;;;;15.95;100.00;99133.03;4963416;28;20636;-78
2023/09/22 07:26:50;;;;;;;2.47;1.10;;;;;;;16.01;100.00;99143.13;4959326;28;20206;-77
2023/09/22 07:29:17;;;;;;;1.70;1.10;;;;;;;16.11;100.00;99153.97;4958141;28;20609;-76
2023/09/22 07:31:44;;;;;;;1.10;1.00;;;;;;;16.22;100.00;99151.66;4951796;28;20211;-76
2023/09/22 07:34:10;;;;;;;3.83;0.87;;;;;;;16.31;100.00;99150.34;4960013;28;20234;-77
2023/09/22 07:36:35;;;;;;;2.70;0.80;;;;;;;16.38;100.00;99158.72;4961796;28;20587;-77
2023/09/22 07:39:00;;;;;;;1.77;0.60;;;;;;;16.39;100.00;99158.66;4962018;28;20190;-77
2023/09/22 07:41:26;;;;;;;1.73;0.90;;;;;;;16.43;100.00;99173.22;4955192;28;20271;-76
2023/09/22 07:43:52;;;;;;;2.00;0.90;;;;;;;16.52;100.00;99176.28;4952022;28;20206;-76
2023/09/22 07:46:17;;;;;;;1.67;0.80;;;;;;;16.63;100.00;99186.19;4964914;28;20276;-77
2023/09/22 07:48:42;;;;;;;1.60;0.83;;;;;;;16.71;100.00;99173.56;4957856;28;20211;-77
2023/09/22 07:51:08;;;;;;;1.20;1.00;;;;;;;16.80;100.00;99167.00;4958962;28;20275;-76
2023/09/22 07:53:34;;;;;;;1.43;1.10;;;;;;;16.85;100.00;99167.63;4957839;28;20220;-76
2023/09/22 07:55:59;;;;;;;2.00;1.10;;;;;;;16.88;100.00;99170.91;4959133;28;20203;-77
2023/09/22 07:58:25;;;;;;;1.90;1.10;;;;;;;16.92;100.00;99171.59;4966817;28;20252;-77
2023/09/22 08:00:52;;;;;;;1.90;1.10;;;;;;;16.95;100.00;99171.47;4957524;28;20264;-78
2023/09/22 08:03:21;;;;;;;1.20;1.00;;;;;;;16.99;100.00;99173.00;4963157;28;20724;-76
2023/09/22 08:05:50;;;;;;;1.27;1.00;;;;;;;16.96;100.00;99172.28;4958360;28;20297;-76
2023/09/22 08:08:17;;;;;;;0.93;0.83;;;;;;;16.90;100.00;99179.50;4962812;28;20184;-77
2023/09/22 08:10:43;;;;;;;1.20;1.10;;;;;;;16.85;100.00;99175.47;4973428;28;20956;-76
2023/09/22 08:13:09;;;;;;;1.40;1.10;;;;;;;16.79;100.00;99173.16;4960517;28;20190;-78
2023/09/22 08:15:35;;;;;;;1.57;1.03;;;;;;;16.75;100.00;99182.94;4954537;28;20215;-79
2023/09/22 08:18:02;;;;;;;1.13;0.90;;;;;;;16.74;100.00;99189.91;4955218;28;20244;-77
2023/09/22 08:20:28;;;;;;;1.10;1.00;;;;;;;16.72;100.00;99191.75;4964430;28;20233;-77
2023/09/22 08:22:53;;;;;;;2.67;1.13;;;;;;;16.71;100.00;99192.69;4965484;28;20220;-76
2023/09/22 08:25:20;;;;;;;1.67;1.00;;;;;;;16.71;100.00;99187.44;4963106;28;20221;-78
2023/09/22 08:27:47;;;;;;;2.40;1.10;;;;;;;16.75;100.00;99189.00;4964344;28;20209;-77
2023/09/22 08:30:14;;;;;;;1.03;0.97;;;;;;;16.80;100.00;99187.91;4960231;28;20385;-77
2023/09/22 08:32:44;;;;;;;1.20;1.07;;;;;;;16.88;100.00;99191.81;4967559;28;20195;-77
2023/09/22 08:35:12;;;;;;;1.67;1.27;;;;;;;16.95;100.00;99192.38;4958702;28;20175;-77
2023/09/22 08:37:42;;;;;;;1.37;1.27;;;;;;;17.05;100.00;99190.09;4953483;28;20207;-79
2023/09/22 08:40:14;;;;;;;1.40;1.10;;;;;;;17.15;100.00;99193.06;4976728;28;20169;-81
2023/09/22 08:42:40;;;;;;;2.13;1.17;;;;;;;17.19;100.00;99197.19;4984854;28;20189;-76
2023/09/22 08:45:06;;;;;;;1.80;1.40;;;;;;;17.27;100.00;99196.78;4960866;28;20201;-77
2023/09/22 08:47:38;;;;;;;1.30;1.07;;;;;;;17.31;100.00;99193.94;4957326;28;20221;-78
2023/09/22 08:50:05;;;;;;;2.00;1.70;;;;;;;17.33;100.00;99191.22;4956190;28;20189;-77
2023/09/22 08:52:31;;;;;;;1.53;1.30;;;;;;;17.50;100.00;99195.50;4960653;28;20189;-78
2023/09/22 08:54:56;;;;;;;1.00;0.90;;;;;;;17.68;100.00;99201.53;4970636;28;20185;-76
2023/09/22 08:57:22;;;;;;;2.43;1.40;;;;;;;17.77;100.00;99195.75;4962007;28;20205;-76
2023/09/22 08:59:53;;;;;;;1.60;1.30;;;;;;;17.79;100.00;99198.28;4961253;28;20650;-78
2023/09/22 09:02:18;;;;;;;1.47;1.17;;;;;;;17.75;100.00;99200.22;4973834;28;20303;-77
2023/09/22 09:04:44;;;;;;;1.57;0.93;;;;;;;17.74;100.00;99195.94;4970225;28;20288;-78
2023/09/22 09:07:09;;;;;;;1.27;1.17;;;;;;;17.91;100.00;99202.84;4969903;28;20230;-80
2023/09/22 09:09:45;;;;;;;1.17;1.07;;;;;;;18.22;100.00;99197.63;4970662;28;20193;-76
2023/09/22 09:12:12;;;;;;;2.20;1.10;;;;;;;18.46;100.00;99190.09;4963122;28;20182;-78
2023/09/22 09:14:42;;;;;;;1.63;1.20;;;;;;;18.66;100.00;99199.41;4969366;28;20677;-78
2023/09/22 09:17:23;;;;;;;1.37;0.83;;;;;;;18.95;100.00;99191.56;4967011;28;20214;-77
2023/09/22 09:20:00;;;;;;;2.47;1.30;;;;;;;19.21;100.00;99196.13;4951508;28;20183;-77
2023/09/22 09:22:36;;;;;;;1.50;1.20;;;;;;;19.49;100.00;99200.50;4954490;28;20646;-78
2023/09/22 09:25:03;;;;;;;1.47;0.87;;;;;;;19.62;100.00;99190.91;4965384;28;20296;-78
2023/09/22 09:27:28;;;;;;;1.33;1.00;;;;;;;19.65;100.00;99195.09;4968299;28;20229;-78
2023/09/22 09:29:55;;;;;;;0.90;0.73;;;;;;;19.84;100.00;99188.66;4967007;28;20240;-77
2023/09/22 09:32:30;;;;;;;1.43;0.93;;;;;;;19.86;100.00;99189.41;4967521;28;20197;-77
2023/09/22 09:34:56;;;;;;;1.53;0.80;;;;;;;19.98;100.00;99195.66;4964062;28;20189;-78
2023/09/22 09:37:22;;;;;;;1.33;0.80;;;;;;;19.89;100.00;99192.69;4966263;28;20210;-77
2023/09/22 09:39:51;;;;;;;1.30;0.90;;;;;;;19.67;100.00;99184.50;4966953;28;20192;-77
2023/09/22 09:42:18;;;;;;;1.20;0.90;;;;;;;19.36;100.00;99189.94;4969762;28;20189;-77
2023/09/22 09:44:51;;;;;;;2.80;1.10;;;;;;;19.44;100.00;99190.28;4968845;28;20221;-78
2023/09/22 09:47:21;;;;;;;1.70;0.80;;;;;;;19.40;100.00;99185.31;4969301;28;20737;-78
2023/09/22 09:49:51;;;;;;;1.53;0.80;;;;;;;19.57;100.00;99179.84;4967735;28;20205;-77
2023/09/22 09:52:19;;;;;;;0.87;0.63;;;;;;;19.54;100.00;99174.78;4965318;28;20193;-77
2023/09/22 09:54:52;;;;;;;0.90;0.60;;;;;;;19.67;100.00;99174.84;4968668;28;20611;-77
2023/09/22 09:57:20;;;;;;;1.20;0.80;;;;;;;19.78;100.00;99174.16;4967297;28;20267;-77
2023/09/22 09:59:46;;;;;;;0.83;0.60;;;;;;;19.78;100.00;99179.41;4967287;28;20197;-77
2023/09/22 10:02:12;;;;;;;1.93;0.77;;;;;;;19.77;100.00;99178.56;4965759;28;20193;-76
2023/09/22 10:04:39;;;;;;;3.93;1.07;;;;;;;19.76;100.00;99182.13;4959764;28;20300;-76
2023/09/22 10:07:06;;;;;;;2.07;0.80;;;;;;;19.94;100.00;99181.91;4960613;28;20206;-77
2023/09/22 10:09:31;;;;;;;0.63;0.53;;;;;;;19.83;100.00;99184.34;4969293;28;20194;-77
2023/09/22 10:11:58;;;;;;;2.43;0.70;;;;;;;19.61;100.00;99183.09;4974340;28;20609;-76
2023/09/22 10:14:43;;;;;;;1.87;0.60;;;;;;;19.48;100.00;99177.81;4967476;28;20182;-77
2023/09/22 10:17:22;;;;;;;1.47;0.97;;;;;;;19.56;100.00;99193.91;4964267;28;20205;-77
2023/09/22 10:19:48;;;;;;;1.40;0.70;;;;;;;19.61;100.00;99188.34;4953144;28;20755;-77
2023/09/22 10:22:13;;;;;;;1.57;0.70;;;;;;;19.70;100.00;99200.03;4957022;28;20189;-78
2023/09/22 10:24:40;;;;;;;1.73;0.80;;;;;;;19.76;100.00;99195.25;4955430;28;20338;-77
2023/09/22 10:27:11;;;;;;;1.23;0.90;;;;;;;19.96;100.00;99185.25;4955112;28;20202;-76
2023/09/22 10:29:41;;;;;;;1.83;0.70;;;;;;;20.11;100.00;99183.44;4960738;28;20557;-76
2023/09/22 10:32:18;;;;;;;1.47;0.90;;;;;;;20.32;100.00;99178.50;4953532;28;20371;-76
2023/09/22 10:34:47;;;;;;;0.80;0.60;;;;;;;20.43;100.00;99174.31;4972719;28;20174;-78
2023/09/22 10:37:14;;;;;;;1.57;0.60;;;;;;;20.52;100.00;99164.03;4975042;28;20203;-77
2023/09/22 10:40:12;;;;;;;0.73;0.60;;;;;;;20.40;100.00;99152.53;4953716;28;20191;-77
2023/09/22 10:42:46;;;;;;;0.73;0.70;;;;;;;20.44;100.00;99153.16;4970279;28;20307;-75
2023/09/22 10:45:12;;;;;;;2.20;0.70;;;;;;;20.30;100.00;99148.88;4957202;28;20210;-78
2023/09/22 10:47:39;;;;;;;1.27;0.80;;;;;;;20.42;99.99;99155.06;4960634;28;20206;-76
2023/09/22 10:50:33;;;;;;;1.17;0.60;;;;;;;20.44;100.00;99158.44;4953247;28;20249;-77
2023/09/22 10:53:05;;;;;;;1.87;0.87;;;;;;;20.61;99.26;99159.91;4959402;28;20794;-77
2023/09/22 10:55:42;;;;;;;1.07;0.77;;;;;;;20.62;99.05;99168.63;4952504;28;20550;-76
2023/09/22 10:58:11;;;;;;;1.17;0.63;;;;;;;20.60;99.07;99170.53;4954479;28;20397;-78
2023/09/22 11:00:40;;;;;;;1.53;0.80;;;;;;;20.41;96.93;99158.66;4950011;28;20197;-76
2023/09/22 11:03:10;;;;;;;1.77;0.80;;;;;;;20.33;98.26;99160.94;4951419;28;20277;-76
2023/09/22 11:05:40;;;;;;;3.17;0.60;;;;;;;20.33;96.64;99158.31;4971881;28;22153;-76
2023/09/22 11:08:17;;;;;;;0.70;0.70;;;;;;;20.44;96.02;99158.44;4955320;28;20179;-77
2023/09/22 11:10:46;;;;;;;0.93;0.60;;;;;;;20.41;96.27;99143.72;4957129;28;20182;-77
2023/09/22 11:13:14;;;;;;;0.90;0.70;;;;;;;20.62;94.78;99145.84;4953010;28;20182;-78
2023/09/22 11:15:48;;;;;;;1.03;0.80;;;;;;;20.76;90.86;99144.06;4963597;28;20185;-78
2023/09/22 11:18:26;;;;;;;2.13;0.70;;;;;;;20.74;91.11;99144.13;4952756;28;20203;-76
2023/09/22 11:21:05;;;;;;;0.80;0.60;;;;;;;20.93;89.11;99134.97;4965493;28;20277;-77
2023/09/22 11:23:32;;;;;;;2.00;0.73;;;;;;;21.09;89.07;99140.81;4964844;28;20206;-77
2023/09/22 11:25:59;;;;;;;1.70;0.93;;;;;;;21.04;88.14;99150.00;4967636;28;20224;-77